sensor_id;sensor_type;location;lat;lon;timestamp;P1;durP1;ratioP1;P2;durP2;ratioP2
16890;SDS011;8562;52.246;20.966;2023-04-25T00:02:17;11.03;;;8.30;;
16890;SDS011;8562;52.246;20.966;2023-04-25T00:04:43;9.97;;;7.80;;
16890;SDS011;8562;52.246;20.966;2023-04-25T00:07:08;16.03;;;8.20;;
16890;SDS011;8562;52.246;20.966;2023-04-25T00:09:34;17.03;;;8.77;;
16890;SDS011;8562;52.246;20.966;2023-04-25T00:11:59;10.73;;;8.67;;
16890;SDS011;8562;52.246;20.966;2023-04-25T00:14:26;10.63;;;8.77;;
16890;SDS011;8562;52.246;20.966;2023-04-25T00:16:52;9.90;;;8.27;;
16890;SDS011;8562;52.246;20.966;2023-04-25T00:19:18;11.23;;;8.23;;
16890;SDS011;8562;52.246;20.966;2023-04-25T00:21:44;12.60;;;8.57;;
16890;SDS011;8562;52.246;20.966;2023-04-25T00:24:11;13.00;;;8.57;;
16890;SDS011;8562;52.246;20.966;2023-04-25T00:26:36;9.57;;;8.27;;
16890;SDS011;8562;52.246;20.966;2023-04-25T00:29:02;10.03;;;7.40;;
16890;SDS011;8562;52.246;20.966;2023-04-25T00:31:27;10.57;;;8.57;;
16890;SDS011;8562;52.246;20.966;2023-04-25T00:33:54;10.27;;;8.70;;
16890;SDS011;8562;52.246;20.966;2023-04-25T00:36:19;13.83;;;9.13;;
16890;SDS011;8562;52.246;20.966;2023-04-25T00:38:45;10.47;;;8.40;;
16890;SDS011;8562;52.246;20.966;2023-04-25T00:41:10;9.67;;;8.67;;
16890;SDS011;8562;52.246;20.966;2023-04-25T00:43:36;11.57;;;9.30;;
16890;SDS011;8562;52.246;20.966;2023-04-25T00:46:01;16.03;;;9.17;;
16890;SDS011;8562;52.246;20.966;2023-04-25T00:48:26;13.27;;;9.70;;
16890;SDS011;8562;52.246;20.966;2023-04-25T00:50:54;15.37;;;10.10;;
16890;SDS011;8562;52.246;20.966;2023-04-25T00:53:22;12.80;;;9.27;;
16890;SDS011;8562;52.246;20.966;2023-04-25T00:55:48;13.10;;;8.70;;
16890;SDS011;8562;52.246;20.966;2023-04-25T00:58:16;11.33;;;9.53;;
16890;SDS011;8562;52.246;20.966;2023-04-25T01:00:41;14.63;;;9.30;;
16890;SDS011;8562;52.246;20.966;2023-04-25T01:03:07;10.90;;;8.63;;
16890;SDS011;8562;52.246;20.966;2023-04-25T01:05:32;13.33;;;8.53;;
16890;SDS011;8562;52.246;20.966;2023-04-25T01:07:58;12.03;;;9.80;;
16890;SDS011;8562;52.246;20.966;2023-04-25T01:10:23;11.73;;;10.30;;
16890;SDS011;8562;52.246;20.966;2023-04-25T01:12:49;12.67;;;8.83;;
16890;SDS011;8562;52.246;20.966;2023-04-25T01:15:15;11.93;;;9.30;;
16890;SDS011;8562;52.246;20.966;2023-04-25T01:17:40;14.50;;;9.03;;
16890;SDS011;8562;52.246;20.966;2023-04-25T01:20:06;12.63;;;9.33;;
16890;SDS011;8562;52.246;20.966;2023-04-25T01:22:32;14.03;;;9.17;;
16890;SDS011;8562;52.246;20.966;2023-04-25T01:24:58;15.33;;;8.83;;
16890;SDS011;8562;52.246;20.966;2023-04-25T01:27:24;14.07;;;9.33;;
16890;SDS011;8562;52.246;20.966;2023-04-25T01:29:50;13.57;;;9.17;;
16890;SDS011;8562;52.246;20.966;2023-04-25T01:32:16;10.97;;;8.53;;
16890;SDS011;8562;52.246;20.966;2023-04-25T01:34:42;10.50;;;8.10;;
16890;SDS011;8562;52.246;20.966;2023-04-25T01:37:07;11.57;;;8.47;;
16890;SDS011;8562;52.246;20.966;2023-04-25T01:39:32;11.40;;;8.30;;
16890;SDS011;8562;52.246;20.966;2023-04-25T01:41:58;9.90;;;7.43;;
16890;SDS011;8562;52.246;20.966;2023-04-25T01:44:24;10.70;;;7.27;;
16890;SDS011;8562;52.246;20.966;2023-04-25T01:46:50;14.20;;;8.20;;
16890;SDS011;8562;52.246;20.966;2023-04-25T01:49:15;11.77;;;8.70;;
16890;SDS011;8562;52.246;20.966;2023-04-25T01:51:43;9.57;;;7.43;;
16890;SDS011;8562;52.246;20.966;2023-04-25T01:54:08;15.10;;;7.83;;
16890;SDS011;8562;52.246;20.966;2023-04-25T01:56:36;9.03;;;7.20;;
16890;SDS011;8562;52.246;20.966;2023-04-25T01:59:02;12.07;;;8.13;;
16890;SDS011;8562;52.246;20.966;2023-04-25T02:01:31;11.23;;;8.57;;
16890;SDS011;8562;52.246;20.966;2023-04-25T02:04:11;10.37;;;7.77;;
16890;SDS011;8562;52.246;20.966;2023-04-25T02:06:38;11.27;;;7.77;;
16890;SDS011;8562;52.246;20.966;2023-04-25T02:09:07;12.43;;;7.57;;
16890;SDS011;8562;52.246;20.966;2023-04-25T02:11:32;11.30;;;7.97;;
16890;SDS011;8562;52.246;20.966;2023-04-25T02:14:16;9.87;;;7.83;;
16890;SDS011;8562;52.246;20.966;2023-04-25T02:16:48;8.87;;;6.80;;
16890;SDS011;8562;52.246;20.966;2023-04-25T02:19:13;10.23;;;7.40;;
16890;SDS011;8562;52.246;20.966;2023-04-25T02:21:38;12.13;;;7.97;;
16890;SDS011;8562;52.246;20.966;2023-04-25T02:24:04;10.10;;;7.83;;
16890;SDS011;8562;52.246;20.966;2023-04-25T02:26:29;10.23;;;8.17;;
16890;SDS011;8562;52.246;20.966;2023-04-25T02:28:56;10.33;;;6.70;;
16890;SDS011;8562;52.246;20.966;2023-04-25T02:31:21;9.07;;;7.30;;
16890;SDS011;8562;52.246;20.966;2023-04-25T02:33:47;8.93;;;6.90;;
16890;SDS011;8562;52.246;20.966;2023-04-25T02:36:12;9.23;;;7.30;;
16890;SDS011;8562;52.246;20.966;2023-04-25T02:38:38;8.00;;;6.47;;
16890;SDS011;8562;52.246;20.966;2023-04-25T02:41:04;10.30;;;7.13;;
16890;SDS011;8562;52.246;20.966;2023-04-25T02:43:29;8.87;;;6.93;;
16890;SDS011;8562;52.246;20.966;2023-04-25T02:45:54;9.97;;;6.77;;
16890;SDS011;8562;52.246;20.966;2023-04-25T02:48:20;10.70;;;7.37;;
16890;SDS011;8562;52.246;20.966;2023-04-25T02:50:45;9.10;;;6.30;;
16890;SDS011;8562;52.246;20.966;2023-04-25T02:53:11;8.97;;;6.53;;
16890;SDS011;8562;52.246;20.966;2023-04-25T02:55:43;11.10;;;6.97;;
16890;SDS011;8562;52.246;20.966;2023-04-25T02:58:08;7.27;;;5.97;;
16890;SDS011;8562;52.246;20.966;2023-04-25T03:00:45;11.47;;;7.33;;
16890;SDS011;8562;52.246;20.966;2023-04-25T03:03:10;8.43;;;6.03;;
16890;SDS011;8562;52.246;20.966;2023-04-25T03:05:36;10.43;;;6.47;;
16890;SDS011;8562;52.246;20.966;2023-04-25T03:08:01;6.47;;;5.77;;
16890;SDS011;8562;52.246;20.966;2023-04-25T03:10:29;7.33;;;5.27;;
16890;SDS011;8562;52.246;20.966;2023-04-25T03:12:58;7.47;;;6.10;;
16890;SDS011;8562;52.246;20.966;2023-04-25T03:15:24;6.40;;;5.57;;
16890;SDS011;8562;52.246;20.966;2023-04-25T03:17:51;8.77;;;5.73;;
16890;SDS011;8562;52.246;20.966;2023-04-25T03:20:16;8.23;;;5.67;;
16890;SDS011;8562;52.246;20.966;2023-04-25T03:22:42;9.30;;;6.17;;
16890;SDS011;8562;52.246;20.966;2023-04-25T03:25:07;6.27;;;5.63;;
16890;SDS011;8562;52.246;20.966;2023-04-25T03:27:33;7.37;;;5.90;;
16890;SDS011;8562;52.246;20.966;2023-04-25T03:29:59;11.60;;;6.53;;
16890;SDS011;8562;52.246;20.966;2023-04-25T03:32:24;7.97;;;5.63;;
16890;SDS011;8562;52.246;20.966;2023-04-25T03:34:50;8.20;;;5.70;;
16890;SDS011;8562;52.246;20.966;2023-04-25T03:37:15;8.33;;;6.10;;
16890;SDS011;8562;52.246;20.966;2023-04-25T03:39:40;11.07;;;5.97;;
16890;SDS011;8562;52.246;20.966;2023-04-25T03:42:06;9.40;;;6.07;;
16890;SDS011;8562;52.246;20.966;2023-04-25T03:44:31;6.33;;;5.67;;
16890;SDS011;8562;52.246;20.966;2023-04-25T03:46:57;9.57;;;5.93;;
16890;SDS011;8562;52.246;20.966;2023-04-25T03:49:24;6.57;;;5.40;;
16890;SDS011;8562;52.246;20.966;2023-04-25T03:51:56;7.90;;;5.87;;
16890;SDS011;8562;52.246;20.966;2023-04-25T03:54:22;9.60;;;6.07;;
16890;SDS011;8562;52.246;20.966;2023-04-25T03:56:55;7.60;;;5.53;;
16890;SDS011;8562;52.246;20.966;2023-04-25T03:59:24;6.70;;;5.70;;
16890;SDS011;8562;52.246;20.966;2023-04-25T04:01:51;8.00;;;5.17;;
16890;SDS011;8562;52.246;20.966;2023-04-25T04:04:16;8.30;;;5.80;;
16890;SDS011;8562;52.246;20.966;2023-04-25T04:06:42;7.43;;;5.40;;
16890;SDS011;8562;52.246;20.966;2023-04-25T04:09:13;7.27;;;4.80;;
16890;SDS011;8562;52.246;20.966;2023-04-25T04:11:41;6.20;;;5.07;;
16890;SDS011;8562;52.246;20.966;2023-04-25T04:14:06;7.87;;;5.57;;
16890;SDS011;8562;52.246;20.966;2023-04-25T04:16:32;9.57;;;5.80;;
16890;SDS011;8562;52.246;20.966;2023-04-25T04:18:58;5.63;;;4.70;;
16890;SDS011;8562;52.246;20.966;2023-04-25T04:21:23;5.73;;;4.50;;
16890;SDS011;8562;52.246;20.966;2023-04-25T04:23:49;8.57;;;4.90;;
16890;SDS011;8562;52.246;20.966;2023-04-25T04:26:15;5.03;;;4.17;;
16890;SDS011;8562;52.246;20.966;2023-04-25T04:28:58;7.33;;;4.30;;
16890;SDS011;8562;52.246;20.966;2023-04-25T04:31:37;5.83;;;5.00;;
16890;SDS011;8562;52.246;20.966;2023-04-25T04:34:03;5.30;;;4.60;;
16890;SDS011;8562;52.246;20.966;2023-04-25T04:36:30;6.83;;;4.87;;
16890;SDS011;8562;52.246;20.966;2023-04-25T04:38:56;6.77;;;4.73;;
16890;SDS011;8562;52.246;20.966;2023-04-25T04:41:36;5.87;;;4.30;;
16890;SDS011;8562;52.246;20.966;2023-04-25T04:44:09;7.00;;;5.20;;
16890;SDS011;8562;52.246;20.966;2023-04-25T04:46:59;7.87;;;4.97;;
16890;SDS011;8562;52.246;20.966;2023-04-25T04:49:51;6.43;;;5.17;;
16890;SDS011;8562;52.246;20.966;2023-04-25T04:52:30;4.63;;;4.00;;
16890;SDS011;8562;52.246;20.966;2023-04-25T04:55:15;7.00;;;4.80;;
16890;SDS011;8562;52.246;20.966;2023-04-25T04:58:04;6.97;;;4.30;;
16890;SDS011;8562;52.246;20.966;2023-04-25T05:00:37;6.30;;;5.47;;
16890;SDS011;8562;52.246;20.966;2023-04-25T05:03:31;6.33;;;5.10;;
16890;SDS011;8562;52.246;20.966;2023-04-25T05:06:26;5.73;;;4.60;;
16890;SDS011;8562;52.246;20.966;2023-04-25T05:09:13;7.00;;;5.70;;
16890;SDS011;8562;52.246;20.966;2023-04-25T05:11:59;6.60;;;5.03;;
16890;SDS011;8562;52.246;20.966;2023-04-25T05:14:42;6.73;;;4.83;;
16890;SDS011;8562;52.246;20.966;2023-04-25T05:17:26;7.67;;;5.60;;
16890;SDS011;8562;52.246;20.966;2023-04-25T05:20:02;5.97;;;5.13;;
16890;SDS011;8562;52.246;20.966;2023-04-25T05:22:46;8.10;;;5.00;;
16890;SDS011;8562;52.246;20.966;2023-04-25T05:25:17;6.00;;;5.20;;
16890;SDS011;8562;52.246;20.966;2023-04-25T05:28:00;7.17;;;5.47;;
16890;SDS011;8562;52.246;20.966;2023-04-25T05:30:48;7.43;;;5.30;;
16890;SDS011;8562;52.246;20.966;2023-04-25T05:33:26;7.97;;;5.30;;
16890;SDS011;8562;52.246;20.966;2023-04-25T05:35:52;6.73;;;5.30;;
16890;SDS011;8562;52.246;20.966;2023-04-25T05:38:18;7.60;;;5.83;;
16890;SDS011;8562;52.246;20.966;2023-04-25T05:41:01;6.03;;;5.27;;
16890;SDS011;8562;52.246;20.966;2023-04-25T05:43:42;5.80;;;4.70;;
16890;SDS011;8562;52.246;20.966;2023-04-25T05:46:30;8.67;;;5.20;;
16890;SDS011;8562;52.246;20.966;2023-04-25T05:49:12;7.40;;;5.70;;
16890;SDS011;8562;52.246;20.966;2023-04-25T05:51:52;6.80;;;5.40;;
16890;SDS011;8562;52.246;20.966;2023-04-25T05:54:37;6.97;;;5.73;;
16890;SDS011;8562;52.246;20.966;2023-04-25T05:57:03;7.37;;;6.33;;
16890;SDS011;8562;52.246;20.966;2023-04-25T05:59:29;9.87;;;5.77;;
16890;SDS011;8562;52.246;20.966;2023-04-25T06:01:55;6.43;;;4.93;;
16890;SDS011;8562;52.246;20.966;2023-04-25T06:04:21;6.30;;;5.57;;
16890;SDS011;8562;52.246;20.966;2023-04-25T06:06:46;6.03;;;5.43;;
16890;SDS011;8562;52.246;20.966;2023-04-25T06:09:12;6.83;;;5.80;;
16890;SDS011;8562;52.246;20.966;2023-04-25T06:11:37;7.97;;;5.57;;
16890;SDS011;8562;52.246;20.966;2023-04-25T06:14:02;10.17;;;5.80;;
16890;SDS011;8562;52.246;20.966;2023-04-25T06:16:30;8.93;;;6.37;;
16890;SDS011;8562;52.246;20.966;2023-04-25T06:18:55;8.33;;;6.20;;
16890;SDS011;8562;52.246;20.966;2023-04-25T06:21:20;8.03;;;6.73;;
16890;SDS011;8562;52.246;20.966;2023-04-25T06:23:49;6.90;;;5.90;;
16890;SDS011;8562;52.246;20.966;2023-04-25T06:26:19;8.20;;;6.53;;
16890;SDS011;8562;52.246;20.966;2023-04-25T06:28:46;8.63;;;6.80;;
16890;SDS011;8562;52.246;20.966;2023-04-25T06:31:11;8.30;;;7.50;;
16890;SDS011;8562;52.246;20.966;2023-04-25T06:33:38;8.53;;;7.30;;
16890;SDS011;8562;52.246;20.966;2023-04-25T06:36:04;9.30;;;7.37;;
16890;SDS011;8562;52.246;20.966;2023-04-25T06:38:30;7.23;;;6.50;;
16890;SDS011;8562;52.246;20.966;2023-04-25T06:40:56;7.57;;;6.37;;
16890;SDS011;8562;52.246;20.966;2023-04-25T06:43:22;7.17;;;5.70;;
16890;SDS011;8562;52.246;20.966;2023-04-25T06:46:05;6.67;;;5.20;;
16890;SDS011;8562;52.246;20.966;2023-04-25T06:48:32;7.67;;;4.93;;
16890;SDS011;8562;52.246;20.966;2023-04-25T06:50:58;8.47;;;5.17;;
16890;SDS011;8562;52.246;20.966;2023-04-25T06:53:24;6.37;;;5.60;;
16890;SDS011;8562;52.246;20.966;2023-04-25T06:55:55;5.13;;;4.63;;
16890;SDS011;8562;52.246;20.966;2023-04-25T06:58:22;5.57;;;4.30;;
16890;SDS011;8562;52.246;20.966;2023-04-25T07:01:07;9.23;;;5.60;;
16890;SDS011;8562;52.246;20.966;2023-04-25T07:03:33;7.03;;;4.73;;
16890;SDS011;8562;52.246;20.966;2023-04-25T07:06:05;7.67;;;4.73;;
16890;SDS011;8562;52.246;20.966;2023-04-25T07:08:30;4.80;;;4.30;;
16890;SDS011;8562;52.246;20.966;2023-04-25T07:10:57;4.93;;;4.33;;
16890;SDS011;8562;52.246;20.966;2023-04-25T07:13:22;4.97;;;4.27;;
16890;SDS011;8562;52.246;20.966;2023-04-25T07:15:48;8.13;;;4.60;;
16890;SDS011;8562;52.246;20.966;2023-04-25T07:18:15;6.73;;;5.60;;
16890;SDS011;8562;52.246;20.966;2023-04-25T07:20:41;6.33;;;4.63;;
16890;SDS011;8562;52.246;20.966;2023-04-25T07:23:06;7.03;;;4.90;;
16890;SDS011;8562;52.246;20.966;2023-04-25T07:25:32;5.40;;;4.30;;
16890;SDS011;8562;52.246;20.966;2023-04-25T07:27:57;6.47;;;4.93;;
16890;SDS011;8562;52.246;20.966;2023-04-25T07:30:22;5.10;;;4.50;;
16890;SDS011;8562;52.246;20.966;2023-04-25T07:32:48;4.13;;;3.73;;
16890;SDS011;8562;52.246;20.966;2023-04-25T07:35:13;5.23;;;4.00;;
16890;SDS011;8562;52.246;20.966;2023-04-25T07:37:40;5.43;;;4.30;;
16890;SDS011;8562;52.246;20.966;2023-04-25T07:40:14;4.70;;;4.00;;
16890;SDS011;8562;52.246;20.966;2023-04-25T07:42:50;5.90;;;4.27;;
16890;SDS011;8562;52.246;20.966;2023-04-25T07:45:21;7.23;;;4.63;;
16890;SDS011;8562;52.246;20.966;2023-04-25T07:47:47;4.57;;;4.13;;
16890;SDS011;8562;52.246;20.966;2023-04-25T07:50:12;4.87;;;3.93;;
16890;SDS011;8562;52.246;20.966;2023-04-25T07:52:38;3.67;;;3.37;;
16890;SDS011;8562;52.246;20.966;2023-04-25T07:55:15;4.33;;;3.93;;
16890;SDS011;8562;52.246;20.966;2023-04-25T07:57:54;4.43;;;3.60;;
16890;SDS011;8562;52.246;20.966;2023-04-25T08:00:19;4.30;;;3.90;;
16890;SDS011;8562;52.246;20.966;2023-04-25T08:02:51;5.03;;;3.97;;
16890;SDS011;8562;52.246;20.966;2023-04-25T08:05:17;4.43;;;4.03;;
16890;SDS011;8562;52.246;20.966;2023-04-25T08:07:47;5.60;;;4.90;;
16890;SDS011;8562;52.246;20.966;2023-04-25T08:10:13;5.60;;;5.07;;
16890;SDS011;8562;52.246;20.966;2023-04-25T08:12:38;6.17;;;5.53;;
16890;SDS011;8562;52.246;20.966;2023-04-25T08:15:06;6.60;;;5.60;;
16890;SDS011;8562;52.246;20.966;2023-04-25T08:17:34;7.63;;;5.83;;
16890;SDS011;8562;52.246;20.966;2023-04-25T08:19:59;8.50;;;6.40;;
16890;SDS011;8562;52.246;20.966;2023-04-25T08:22:29;6.10;;;5.50;;
16890;SDS011;8562;52.246;20.966;2023-04-25T08:25:15;5.33;;;4.70;;
16890;SDS011;8562;52.246;20.966;2023-04-25T08:27:41;5.93;;;5.00;;
16890;SDS011;8562;52.246;20.966;2023-04-25T08:30:08;4.33;;;3.63;;
16890;SDS011;8562;52.246;20.966;2023-04-25T08:32:34;3.87;;;3.53;;
16890;SDS011;8562;52.246;20.966;2023-04-25T08:35:20;4.27;;;3.30;;
16890;SDS011;8562;52.246;20.966;2023-04-25T08:37:46;4.63;;;2.93;;
16890;SDS011;8562;52.246;20.966;2023-04-25T08:40:14;3.23;;;2.80;;
16890;SDS011;8562;52.246;20.966;2023-04-25T08:42:53;3.63;;;2.93;;
16890;SDS011;8562;52.246;20.966;2023-04-25T08:45:20;3.50;;;3.20;;
16890;SDS011;8562;52.246;20.966;2023-04-25T08:47:46;4.87;;;3.60;;
16890;SDS011;8562;52.246;20.966;2023-04-25T08:50:13;9.20;;;4.63;;
16890;SDS011;8562;52.246;20.966;2023-04-25T08:52:41;5.27;;;3.97;;
16890;SDS011;8562;52.246;20.966;2023-04-25T08:55:08;4.33;;;3.93;;
16890;SDS011;8562;52.246;20.966;2023-04-25T08:57:34;4.80;;;3.90;;
16890;SDS011;8562;52.246;20.966;2023-04-25T09:00:00;4.93;;;3.87;;
16890;SDS011;8562;52.246;20.966;2023-04-25T09:02:26;5.50;;;4.00;;
16890;SDS011;8562;52.246;20.966;2023-04-25T09:04:52;5.03;;;3.70;;
16890;SDS011;8562;52.246;20.966;2023-04-25T09:07:19;6.00;;;3.47;;
16890;SDS011;8562;52.246;20.966;2023-04-25T09:09:46;4.00;;;3.07;;
16890;SDS011;8562;52.246;20.966;2023-04-25T09:12:15;3.87;;;3.47;;
16890;SDS011;8562;52.246;20.966;2023-04-25T09:14:41;3.93;;;3.10;;
16890;SDS011;8562;52.246;20.966;2023-04-25T09:17:17;3.70;;;3.40;;
16890;SDS011;8562;52.246;20.966;2023-04-25T09:19:46;4.33;;;3.93;;
16890;SDS011;8562;52.246;20.966;2023-04-25T09:22:19;5.67;;;4.87;;
16890;SDS011;8562;52.246;20.966;2023-04-25T09:24:47;5.07;;;4.50;;
16890;SDS011;8562;52.246;20.966;2023-04-25T09:27:19;7.77;;;5.33;;
16890;SDS011;8562;52.246;20.966;2023-04-25T09:29:45;6.63;;;5.03;;
16890;SDS011;8562;52.246;20.966;2023-04-25T09:32:14;11.80;;;5.47;;
16890;SDS011;8562;52.246;20.966;2023-04-25T09:34:40;6.67;;;5.83;;
16890;SDS011;8562;52.246;20.966;2023-04-25T09:37:08;7.33;;;5.70;;
16890;SDS011;8562;52.246;20.966;2023-04-25T09:39:56;6.47;;;5.53;;
16890;SDS011;8562;52.246;20.966;2023-04-25T09:42:23;7.17;;;5.37;;
16890;SDS011;8562;52.246;20.966;2023-04-25T09:44:49;7.13;;;5.47;;
16890;SDS011;8562;52.246;20.966;2023-04-25T09:47:16;7.03;;;6.13;;
16890;SDS011;8562;52.246;20.966;2023-04-25T09:49:44;7.87;;;6.33;;
16890;SDS011;8562;52.246;20.966;2023-04-25T09:52:15;7.07;;;6.03;;
16890;SDS011;8562;52.246;20.966;2023-04-25T09:54:49;7.60;;;6.67;;
16890;SDS011;8562;52.246;20.966;2023-04-25T09:57:22;9.90;;;7.67;;
16890;SDS011;8562;52.246;20.966;2023-04-25T09:59:52;8.97;;;7.00;;
16890;SDS011;8562;52.246;20.966;2023-04-25T10:02:19;8.00;;;7.20;;
16890;SDS011;8562;52.246;20.966;2023-04-25T10:04:50;8.20;;;6.83;;
16890;SDS011;8562;52.246;20.966;2023-04-25T10:07:27;10.03;;;7.07;;
16890;SDS011;8562;52.246;20.966;2023-04-25T10:10:01;7.90;;;7.00;;
16890;SDS011;8562;52.246;20.966;2023-04-25T10:12:28;10.47;;;7.77;;
16890;SDS011;8562;52.246;20.966;2023-04-25T10:14:54;9.23;;;7.50;;
16890;SDS011;8562;52.246;20.966;2023-04-25T10:17:19;8.67;;;6.80;;
16890;SDS011;8562;52.246;20.966;2023-04-25T10:19:45;11.10;;;8.03;;
16890;SDS011;8562;52.246;20.966;2023-04-25T10:22:13;8.50;;;7.57;;
16890;SDS011;8562;52.246;20.966;2023-04-25T10:24:39;8.17;;;7.27;;
16890;SDS011;8562;52.246;20.966;2023-04-25T10:27:05;9.47;;;7.23;;
16890;SDS011;8562;52.246;20.966;2023-04-25T10:29:31;10.57;;;7.57;;
16890;SDS011;8562;52.246;20.966;2023-04-25T10:31:57;9.40;;;7.40;;
16890;SDS011;8562;52.246;20.966;2023-04-25T10:34:41;9.10;;;8.03;;
16890;SDS011;8562;52.246;20.966;2023-04-25T10:37:09;8.33;;;6.70;;
16890;SDS011;8562;52.246;20.966;2023-04-25T10:39:35;8.10;;;7.30;;
16890;SDS011;8562;52.246;20.966;2023-04-25T10:42:02;10.17;;;8.20;;
16890;SDS011;8562;52.246;20.966;2023-04-25T10:44:28;9.60;;;7.87;;
16890;SDS011;8562;52.246;20.966;2023-04-25T10:46:57;8.40;;;7.00;;
16890;SDS011;8562;52.246;20.966;2023-04-25T10:52:14;8.57;;;7.03;;
16890;SDS011;8562;52.246;20.966;2023-04-25T10:54:46;8.70;;;7.63;;
16890;SDS011;8562;52.246;20.966;2023-04-25T11:00:12;9.33;;;8.17;;
16890;SDS011;8562;52.246;20.966;2023-04-25T11:02:40;8.80;;;7.60;;
16890;SDS011;8562;52.246;20.966;2023-04-25T11:05:06;8.63;;;7.33;;
16890;SDS011;8562;52.246;20.966;2023-04-25T11:07:39;9.93;;;7.77;;
16890;SDS011;8562;52.246;20.966;2023-04-25T11:10:09;9.97;;;8.97;;
16890;SDS011;8562;52.246;20.966;2023-04-25T11:12:34;9.93;;;7.73;;
16890;SDS011;8562;52.246;20.966;2023-04-25T11:15:01;8.37;;;7.40;;
16890;SDS011;8562;52.246;20.966;2023-04-25T11:17:26;9.60;;;7.80;;
16890;SDS011;8562;52.246;20.966;2023-04-25T11:19:51;11.90;;;7.70;;
16890;SDS011;8562;52.246;20.966;2023-04-25T11:22:17;9.47;;;8.23;;
16890;SDS011;8562;52.246;20.966;2023-04-25T11:24:42;10.50;;;7.97;;
16890;SDS011;8562;52.246;20.966;2023-04-25T11:27:08;8.83;;;7.47;;
16890;SDS011;8562;52.246;20.966;2023-04-25T11:29:34;9.87;;;8.47;;
16890;SDS011;8562;52.246;20.966;2023-04-25T11:31:59;8.53;;;7.73;;
16890;SDS011;8562;52.246;20.966;2023-04-25T11:34:26;8.30;;;7.27;;
16890;SDS011;8562;52.246;20.966;2023-04-25T11:36:52;8.20;;;7.30;;
16890;SDS011;8562;52.246;20.966;2023-04-25T11:39:18;10.30;;;8.17;;
16890;SDS011;8562;52.246;20.966;2023-04-25T11:41:43;7.90;;;6.80;;
16890;SDS011;8562;52.246;20.966;2023-04-25T11:44:08;8.40;;;6.47;;
16890;SDS011;8562;52.246;20.966;2023-04-25T11:46:34;7.73;;;6.90;;
16890;SDS011;8562;52.246;20.966;2023-04-25T11:49:00;8.87;;;7.57;;
16890;SDS011;8562;52.246;20.966;2023-04-25T11:51:39;9.23;;;7.30;;
16890;SDS011;8562;52.246;20.966;2023-04-25T11:54:04;8.57;;;7.60;;
16890;SDS011;8562;52.246;20.966;2023-04-25T11:56:30;7.50;;;6.73;;
16890;SDS011;8562;52.246;20.966;2023-04-25T11:58:57;5.97;;;5.47;;
16890;SDS011;8562;52.246;20.966;2023-04-25T12:01:27;8.10;;;6.37;;
16890;SDS011;8562;52.246;20.966;2023-04-25T12:03:52;7.43;;;5.67;;
16890;SDS011;8562;52.246;20.966;2023-04-25T12:06:18;6.13;;;5.53;;
16890;SDS011;8562;52.246;20.966;2023-04-25T12:08:59;6.83;;;5.80;;
16890;SDS011;8562;52.246;20.966;2023-04-25T12:11:25;5.90;;;5.40;;
16890;SDS011;8562;52.246;20.966;2023-04-25T12:13:53;5.77;;;5.13;;
16890;SDS011;8562;52.246;20.966;2023-04-25T12:16:19;6.87;;;4.83;;
16890;SDS011;8562;52.246;20.966;2023-04-25T12:18:44;5.33;;;4.83;;
16890;SDS011;8562;52.246;20.966;2023-04-25T12:21:09;4.90;;;4.40;;
16890;SDS011;8562;52.246;20.966;2023-04-25T12:23:35;4.63;;;3.90;;
16890;SDS011;8562;52.246;20.966;2023-04-25T12:26:03;4.20;;;3.90;;
16890;SDS011;8562;52.246;20.966;2023-04-25T12:28:28;7.23;;;4.50;;
16890;SDS011;8562;52.246;20.966;2023-04-25T12:31:03;5.63;;;4.17;;
16890;SDS011;8562;52.246;20.966;2023-04-25T12:33:35;5.63;;;3.97;;
16890;SDS011;8562;52.246;20.966;2023-04-25T12:36:02;5.50;;;4.30;;
16890;SDS011;8562;52.246;20.966;2023-04-25T12:38:37;4.17;;;3.77;;
16890;SDS011;8562;52.246;20.966;2023-04-25T12:41:03;4.10;;;3.77;;
16890;SDS011;8562;52.246;20.966;2023-04-25T12:43:28;3.97;;;3.53;;
16890;SDS011;8562;52.246;20.966;2023-04-25T12:45:54;4.13;;;3.73;;
16890;SDS011;8562;52.246;20.966;2023-04-25T12:48:20;4.97;;;3.87;;
16890;SDS011;8562;52.246;20.966;2023-04-25T12:50:46;3.90;;;3.17;;
16890;SDS011;8562;52.246;20.966;2023-04-25T12:53:17;4.93;;;4.43;;
16890;SDS011;8562;52.246;20.966;2023-04-25T12:55:43;3.83;;;3.47;;
16890;SDS011;8562;52.246;20.966;2023-04-25T12:58:11;4.97;;;3.93;;
16890;SDS011;8562;52.246;20.966;2023-04-25T13:00:36;4.80;;;3.60;;
16890;SDS011;8562;52.246;20.966;2023-04-25T13:03:02;4.13;;;3.73;;
16890;SDS011;8562;52.246;20.966;2023-04-25T13:05:27;4.57;;;4.20;;
16890;SDS011;8562;52.246;20.966;2023-04-25T13:07:53;4.17;;;3.87;;
16890;SDS011;8562;52.246;20.966;2023-04-25T13:10:18;3.63;;;3.33;;
16890;SDS011;8562;52.246;20.966;2023-04-25T13:12:43;4.97;;;4.07;;
16890;SDS011;8562;52.246;20.966;2023-04-25T13:15:09;6.07;;;4.20;;
16890;SDS011;8562;52.246;20.966;2023-04-25T13:17:36;4.40;;;4.00;;
16890;SDS011;8562;52.246;20.966;2023-04-25T13:20:02;5.97;;;4.27;;
16890;SDS011;8562;52.246;20.966;2023-04-25T13:22:29;4.43;;;3.73;;
16890;SDS011;8562;52.246;20.966;2023-04-25T13:24:55;4.83;;;4.43;;
16890;SDS011;8562;52.246;20.966;2023-04-25T13:27:20;5.57;;;3.70;;
16890;SDS011;8562;52.246;20.966;2023-04-25T13:29:45;5.00;;;3.80;;
16890;SDS011;8562;52.246;20.966;2023-04-25T13:32:11;6.20;;;3.50;;
16890;SDS011;8562;52.246;20.966;2023-04-25T13:34:36;5.03;;;3.90;;
16890;SDS011;8562;52.246;20.966;2023-04-25T13:37:01;5.20;;;4.03;;
16890;SDS011;8562;52.246;20.966;2023-04-25T13:39:26;6.73;;;3.67;;
16890;SDS011;8562;52.246;20.966;2023-04-25T13:41:52;3.90;;;3.37;;
16890;SDS011;8562;52.246;20.966;2023-04-25T13:44:17;4.40;;;3.77;;
16890;SDS011;8562;52.246;20.966;2023-04-25T13:46:43;4.70;;;3.53;;
16890;SDS011;8562;52.246;20.966;2023-04-25T13:49:08;4.57;;;4.00;;
16890;SDS011;8562;52.246;20.966;2023-04-25T13:51:34;3.80;;;3.40;;
16890;SDS011;8562;52.246;20.966;2023-04-25T13:53:59;3.93;;;3.57;;
16890;SDS011;8562;52.246;20.966;2023-04-25T13:56:24;4.40;;;3.63;;
16890;SDS011;8562;52.246;20.966;2023-04-25T13:58:50;4.03;;;3.63;;
16890;SDS011;8562;52.246;20.966;2023-04-25T14:01:16;3.43;;;3.13;;
16890;SDS011;8562;52.246;20.966;2023-04-25T14:03:42;4.03;;;3.63;;
16890;SDS011;8562;52.246;20.966;2023-04-25T14:06:07;3.93;;;3.40;;
16890;SDS011;8562;52.246;20.966;2023-04-25T14:08:33;3.17;;;2.87;;
16890;SDS011;8562;52.246;20.966;2023-04-25T14:10:59;3.10;;;2.90;;
16890;SDS011;8562;52.246;20.966;2023-04-25T14:13:24;3.20;;;2.90;;
16890;SDS011;8562;52.246;20.966;2023-04-25T14:15:49;3.87;;;3.03;;
16890;SDS011;8562;52.246;20.966;2023-04-25T14:18:15;3.53;;;3.10;;
16890;SDS011;8562;52.246;20.966;2023-04-25T14:20:41;3.73;;;2.87;;
16890;SDS011;8562;52.246;20.966;2023-04-25T14:23:06;3.10;;;2.90;;
16890;SDS011;8562;52.246;20.966;2023-04-25T14:25:31;3.97;;;3.13;;
16890;SDS011;8562;52.246;20.966;2023-04-25T14:27:57;3.37;;;3.07;;
16890;SDS011;8562;52.246;20.966;2023-04-25T14:30:22;3.20;;;2.90;;
16890;SDS011;8562;52.246;20.966;2023-04-25T14:32:48;2.77;;;2.53;;
16890;SDS011;8562;52.246;20.966;2023-04-25T14:35:13;3.50;;;2.97;;
16890;SDS011;8562;52.246;20.966;2023-04-25T14:37:39;4.27;;;3.60;;
16890;SDS011;8562;52.246;20.966;2023-04-25T14:40:04;3.37;;;3.07;;
16890;SDS011;8562;52.246;20.966;2023-04-25T14:42:30;4.53;;;3.80;;
16890;SDS011;8562;52.246;20.966;2023-04-25T14:44:56;4.10;;;3.70;;
16890;SDS011;8562;52.246;20.966;2023-04-25T14:47:21;4.47;;;2.70;;
16890;SDS011;8562;52.246;20.966;2023-04-25T14:49:46;3.03;;;2.77;;
16890;SDS011;8562;52.246;20.966;2023-04-25T14:52:18;4.20;;;3.40;;
16890;SDS011;8562;52.246;20.966;2023-04-25T14:54:44;4.57;;;3.77;;
16890;SDS011;8562;52.246;20.966;2023-04-25T14:57:09;3.83;;;3.43;;
16890;SDS011;8562;52.246;20.966;2023-04-25T14:59:34;4.33;;;3.93;;